createdAt,value
2019-02-08T00:01:44.463Z,3.70
2019-02-08T00:04:11.763Z,3.60
2019-02-08T00:06:38.912Z,3.70
2019-02-08T00:09:08.907Z,3.70
2019-02-08T00:11:37.444Z,3.70
2019-02-08T00:14:05.352Z,3.80
2019-02-08T00:16:32.683Z,3.80
2019-02-08T00:18:59.948Z,3.80
2019-02-08T00:21:27.091Z,3.70
2019-02-08T00:23:54.560Z,3.70
2019-02-08T00:26:21.656Z,3.60
2019-02-08T00:28:48.625Z,3.50
2019-02-08T00:31:16.218Z,3.50
2019-02-08T00:33:44.077Z,3.50
2019-02-08T00:36:11.220Z,3.40
2019-02-08T00:38:38.479Z,3.50
2019-02-08T00:41:05.860Z,3.50
2019-02-08T00:43:32.812Z,3.40
2019-02-08T00:45:59.860Z,3.40
2019-02-08T00:48:26.930Z,3.50
2019-02-08T00:50:54.084Z,3.50
2019-02-08T00:53:21.406Z,3.50
2019-02-08T00:55:48.456Z,3.50
2019-02-08T00:58:15.600Z,3.50
2019-02-08T01:00:43.028Z,3.60
2019-02-08T01:03:10.719Z,3.50
2019-02-08T01:05:38.252Z,3.50
2019-02-08T01:08:05.723Z,3.50
2019-02-08T01:10:32.912Z,3.60
2019-02-08T01:13:00.545Z,3.60
2019-02-08T01:15:28.392Z,3.60
2019-02-08T01:17:55.702Z,3.60
2019-02-08T01:20:23.261Z,3.50
2019-02-08T01:22:50.876Z,3.50
2019-02-08T01:25:19.492Z,3.50
2019-02-08T01:27:47.230Z,3.40
2019-02-08T01:30:17.005Z,3.40
2019-02-08T01:32:44.111Z,3.50
2019-02-08T01:35:13.796Z,3.50
2019-02-08T01:37:40.832Z,3.60
2019-02-08T01:40:14.511Z,3.60
2019-02-08T01:42:41.664Z,3.50
2019-02-08T01:45:09.884Z,3.40
2019-02-08T01:47:37.031Z,3.50
2019-02-08T01:50:06.005Z,3.50
2019-02-08T01:52:33.332Z,3.50
2019-02-08T01:55:00.727Z,3.60
2019-02-08T01:57:27.896Z,3.70
2019-02-08T01:59:55.990Z,3.70
2019-02-08T02:02:23.252Z,3.70
2019-02-08T02:04:50.615Z,3.70
2019-02-08T02:07:17.646Z,3.70
2019-02-08T02:09:44.719Z,3.70
2019-02-08T02:12:11.905Z,3.70
2019-02-08T02:14:39.064Z,3.70
2019-02-08T02:17:06.192Z,3.80
2019-02-08T02:19:33.232Z,3.70
2019-02-08T02:22:00.277Z,3.70
2019-02-08T02:24:27.956Z,3.90
2019-02-08T02:26:55.126Z,3.90
2019-02-08T02:29:22.236Z,3.70
2019-02-08T02:31:49.445Z,3.60
2019-02-08T02:34:16.361Z,3.50
2019-02-08T02:36:43.646Z,3.40
2019-02-08T02:39:11.589Z,3.40
2019-02-08T02:41:39.017Z,3.40
2019-02-08T02:44:06.158Z,3.50
2019-02-08T02:46:33.519Z,3.50
2019-02-08T02:49:00.872Z,3.50
2019-02-08T02:51:28.279Z,3.50
2019-02-08T02:53:55.519Z,3.40
2019-02-08T02:56:22.857Z,3.40
2019-02-08T02:58:50.086Z,3.40
2019-02-08T03:01:17.504Z,3.40
2019-02-08T03:03:44.758Z,3.40
2019-02-08T03:06:12.149Z,3.30
2019-02-08T03:08:39.905Z,3.40
2019-02-08T03:11:07.243Z,3.50
2019-02-08T03:13:34.816Z,3.50
2019-02-08T03:16:01.915Z,3.50
2019-02-08T03:18:29.260Z,3.50
2019-02-08T03:20:56.507Z,3.60
2019-02-08T03:23:24.969Z,3.70
2019-02-08T03:25:52.265Z,3.70
2019-02-08T03:28:19.267Z,3.80
2019-02-08T03:30:52.176Z,3.90
2019-02-08T03:33:19.378Z,4.00
2019-02-08T03:35:46.888Z,4.00
2019-02-08T03:38:14.021Z,4.00
2019-02-08T03:40:41.145Z,4.00
2019-02-08T03:43:08.469Z,4.00
2019-02-08T03:45:39.181Z,4.10
2019-02-08T03:48:06.511Z,4.10
2019-02-08T03:50:33.700Z,4.10
2019-02-08T03:53:01.240Z,4.10
2019-02-08T03:55:28.285Z,4.10
2019-02-08T03:57:55.382Z,4.10
2019-02-08T04:00:49.828Z,4.10
2019-02-08T04:03:17.199Z,4.10
2019-02-08T04:05:44.405Z,4.00
2019-02-08T04:08:11.520Z,4.10
2019-02-08T04:10:39.161Z,4.10
2019-02-08T04:13:06.160Z,4.10
2019-02-08T04:15:33.652Z,4.20
2019-02-08T04:18:00.768Z,4.20
2019-02-08T04:20:27.796Z,4.10
2019-02-08T04:22:55.466Z,4.20
2019-02-08T04:25:23.281Z,4.10
2019-02-08T04:27:50.736Z,4.10
2019-02-08T04:30:20.629Z,4.10
2019-02-08T04:32:48.142Z,4.10
2019-02-08T04:35:15.176Z,4.10
2019-02-08T04:37:42.432Z,4.10
2019-02-08T04:40:10.136Z,4.10
2019-02-08T04:42:37.169Z,4.20
2019-02-08T04:45:05.227Z,4.20
2019-02-08T04:47:32.181Z,4.20
2019-02-08T04:49:59.384Z,4.20
2019-02-08T04:52:26.541Z,4.20
2019-02-08T04:54:53.808Z,4.20
2019-02-08T04:57:21.044Z,4.30
2019-02-08T04:59:48.465Z,4.30
2019-02-08T05:02:15.679Z,4.30
2019-02-08T05:04:42.954Z,4.30
2019-02-08T05:07:10.278Z,4.30
2019-02-08T05:09:37.324Z,4.20
2019-02-08T05:12:04.762Z,4.20
2019-02-08T05:14:31.713Z,4.20
2019-02-08T05:16:59.398Z,4.20
2019-02-08T05:19:26.636Z,4.20
2019-02-08T05:21:53.884Z,4.20
2019-02-08T05:24:21.342Z,4.20
2019-02-08T05:26:48.492Z,4.20
2019-02-08T05:29:15.492Z,4.20
2019-02-08T05:31:43.540Z,4.20
2019-02-08T05:34:10.973Z,4.30
2019-02-08T05:36:38.421Z,4.20
2019-02-08T05:39:09.273Z,4.10
2019-02-08T05:41:36.232Z,4.10
2019-02-08T05:44:03.667Z,4.00
2019-02-08T05:46:31.161Z,4.00
2019-02-08T05:48:58.677Z,4.00
2019-02-08T05:51:25.928Z,4.00
2019-02-08T05:53:53.178Z,4.10
2019-02-08T05:56:20.196Z,4.10
2019-02-08T05:58:47.488Z,4.10
2019-02-08T06:01:14.672Z,4.10
2019-02-08T06:03:42.093Z,4.20
2019-02-08T06:06:09.261Z,4.10
2019-02-08T06:08:36.472Z,4.10
2019-02-08T06:11:03.938Z,4.10
2019-02-08T06:13:30.868Z,4.10
2019-02-08T06:15:58.355Z,4.10
2019-02-08T06:18:25.748Z,4.10
2019-02-08T06:20:53.215Z,4.10
2019-02-08T06:23:20.525Z,4.20
2019-02-08T06:25:47.872Z,4.20
2019-02-08T06:28:14.804Z,4.20
2019-02-08T06:30:42.097Z,4.30
2019-02-08T06:33:09.444Z,4.40
2019-02-08T06:35:36.581Z,4.30
2019-02-08T06:38:05.240Z,4.30
2019-02-08T06:40:33.382Z,4.30
2019-02-08T06:43:00.730Z,4.30
2019-02-08T06:45:28.255Z,4.30
2019-02-08T06:47:55.532Z,4.30
2019-02-08T06:50:23.693Z,4.30
2019-02-08T06:52:51.375Z,4.30
2019-02-08T06:55:18.792Z,4.30
2019-02-08T06:58:02.241Z,4.40
2019-02-08T07:00:34.392Z,4.40
2019-02-08T07:03:20.154Z,4.50
2019-02-08T07:05:56.299Z,4.50
2019-02-08T07:08:48.726Z,4.50
2019-02-08T07:11:22.212Z,4.40
2019-02-08T07:14:08.186Z,4.50
2019-02-08T07:16:52.387Z,4.50
2019-02-08T07:19:32.907Z,4.60
2019-02-08T07:22:08.171Z,4.60
2019-02-08T07:24:54.854Z,4.70
2019-02-08T07:27:29.409Z,4.70
2019-02-08T07:30:19.485Z,4.70
2019-02-08T07:32:58.466Z,4.80
2019-02-08T07:35:45.810Z,4.90
2019-02-08T07:38:21.395Z,4.90
2019-02-08T07:41:11.968Z,5.00
2019-02-08T07:43:50.344Z,5.00
2019-02-08T07:46:33.228Z,5.10
2019-02-08T07:49:22.453Z,5.10
2019-02-08T07:51:56.160Z,5.00
2019-02-08T07:54:42.449Z,5.00
2019-02-08T07:57:30.729Z,5.00
2019-02-08T08:00:16.838Z,5.00
2019-02-08T08:02:56.192Z,5.00
2019-02-08T08:05:33.468Z,5.00
2019-02-08T08:08:19.272Z,5.00
2019-02-08T08:11:10.233Z,5.00
2019-02-08T08:13:53.365Z,5.00
2019-02-08T08:16:43.136Z,5.00
2019-02-08T08:19:24.639Z,5.10
2019-02-08T08:22:01.694Z,5.10
2019-02-08T08:24:56.706Z,5.10
2019-02-08T08:27:56.611Z,5.10
2019-02-08T08:30:31.177Z,5.10
2019-02-08T08:33:14.601Z,5.10
2019-02-08T08:36:14.988Z,5.20
2019-02-08T08:39:16.849Z,5.20
2019-02-08T08:42:14.639Z,5.20
2019-02-08T08:45:20.070Z,5.20
2019-02-08T08:48:28.220Z,5.30
2019-02-08T08:51:24.851Z,5.30
2019-02-08T08:54:42.100Z,5.30
2019-02-08T08:57:55.455Z,5.40
2019-02-08T09:00:57.744Z,5.50
2019-02-08T09:04:12.862Z,5.40
2019-02-08T09:07:37.532Z,5.40
2019-02-08T09:10:58.969Z,5.40
2019-02-08T09:13:45.779Z,5.40
2019-02-08T09:16:57.728Z,5.50
2019-02-08T09:20:02.108Z,5.60
2019-02-08T09:22:50.432Z,5.60
2019-02-08T09:25:49.809Z,5.70
2019-02-08T09:28:37.991Z,5.70
2019-02-08T09:32:03.727Z,5.80
2019-02-08T09:35:13.274Z,5.80
2019-02-08T09:38:00.163Z,5.90
2019-02-08T09:40:52.240Z,5.80
2019-02-08T09:44:00.142Z,5.90
2019-02-08T09:47:14.692Z,5.90
2019-02-08T09:50:23.152Z,6.00
2019-02-08T09:53:22.224Z,6.00
2019-02-08T09:56:18.040Z,6.10
2019-02-08T09:59:13.856Z,6.10
2019-02-08T10:02:30.812Z,6.20
2019-02-08T10:05:32.755Z,6.30
2019-02-08T10:08:59.384Z,6.30
2019-02-08T10:12:09.996Z,6.40
2019-02-08T10:15:07.889Z,6.50
2019-02-08T10:18:25.652Z,6.50
2019-02-08T10:21:29.002Z,6.50
2019-02-08T10:24:36.651Z,6.60
2019-02-08T10:27:40.776Z,6.60
2019-02-08T10:30:51.749Z,6.60
2019-02-08T10:34:01.725Z,6.60
2019-02-08T10:37:05.825Z,6.70
2019-02-08T10:40:04.815Z,6.80
2019-02-08T10:43:16.075Z,6.80
2019-02-08T10:46:30.591Z,6.90
2019-02-08T10:49:25.137Z,6.90
2019-02-08T10:52:21.963Z,7.00
2019-02-08T10:55:11.640Z,7.00
2019-02-08T10:58:22.086Z,7.00
2019-02-08T11:01:41.530Z,7.10
2019-02-08T11:04:57.184Z,7.20
2019-02-08T11:08:13.313Z,7.20
2019-02-08T11:11:18.600Z,7.20
2019-02-08T11:14:27.051Z,7.30
2019-02-08T11:17:31.869Z,7.40
2019-02-08T11:19:59.162Z,7.60
2019-02-08T11:22:26.087Z,7.70
2019-02-08T11:24:53.632Z,7.80
2019-02-08T11:27:20.988Z,7.80
2019-02-08T11:29:48.370Z,7.80
2019-02-08T11:32:16.077Z,8.00
2019-02-08T11:34:43.016Z,8.20
2019-02-08T11:37:10.248Z,8.20
2019-02-08T11:39:37.505Z,8.30
2019-02-08T11:42:04.950Z,8.40
2019-02-08T11:44:32.072Z,8.50
2019-02-08T11:46:59.554Z,8.50
2019-02-08T11:49:26.645Z,8.50
2019-02-08T11:51:53.684Z,8.60
2019-02-08T11:54:21.058Z,8.60
2019-02-08T11:56:48.116Z,8.70
2019-02-08T11:59:15.128Z,8.70
2019-02-08T12:01:44.723Z,8.80
2019-02-08T12:04:12.112Z,8.90
2019-02-08T12:06:39.366Z,8.90
2019-02-08T12:09:12.317Z,8.90
2019-02-08T12:11:39.574Z,8.80
2019-02-08T12:14:06.680Z,8.70
2019-02-08T12:16:35.267Z,8.70
2019-02-08T12:19:02.577Z,8.60
2019-02-08T12:21:29.873Z,8.70
2019-02-08T12:23:57.364Z,8.80
2019-02-08T12:26:24.772Z,8.80
2019-02-08T12:28:51.941Z,8.90
2019-02-08T12:31:19.356Z,9.00
2019-02-08T12:33:46.777Z,9.00
2019-02-08T12:36:13.796Z,9.00
2019-02-08T12:38:42.302Z,9.10
2019-02-08T12:41:10.008Z,9.30
2019-02-08T12:43:37.586Z,9.50
2019-02-08T12:46:04.826Z,9.70
2019-02-08T12:48:31.988Z,9.70
2019-02-08T12:50:59.012Z,9.60
2019-02-08T12:53:26.132Z,9.60
2019-02-08T12:55:53.044Z,9.50
2019-02-08T12:58:20.378Z,9.50
2019-02-08T13:00:47.784Z,9.50
2019-02-08T13:03:15.612Z,9.50
2019-02-08T13:05:42.936Z,9.40
2019-02-08T13:08:10.196Z,9.50
2019-02-08T13:10:37.224Z,9.50
2019-02-08T13:13:04.356Z,9.40
2019-02-08T13:15:31.347Z,9.40
2019-02-08T13:17:58.276Z,9.30
2019-02-08T13:20:25.403Z,9.20
2019-02-08T13:22:52.644Z,9.20
2019-02-08T13:25:20.068Z,9.20
2019-02-08T13:27:47.677Z,9.20
2019-02-08T13:30:25.295Z,9.20
2019-02-08T13:32:52.567Z,9.00
2019-02-08T13:35:19.896Z,9.00
2019-02-08T13:37:47.679Z,9.00
2019-02-08T13:40:16.120Z,9.00
2019-02-08T13:42:43.572Z,9.00
2019-02-08T13:45:11.029Z,8.90
2019-02-08T13:47:50.953Z,8.90
2019-02-08T13:50:22.960Z,8.80
2019-02-08T13:52:50.404Z,8.80
2019-02-08T13:55:19.076Z,8.80
2019-02-08T13:57:46.232Z,8.70
2019-02-08T14:00:19.728Z,8.80
2019-02-08T14:02:46.863Z,8.80
2019-02-08T14:05:14.261Z,8.90
2019-02-08T14:07:41.595Z,8.80
2019-02-08T14:10:10.435Z,8.80
2019-02-08T14:12:37.758Z,8.80
2019-02-08T14:15:05.832Z,8.70
2019-02-08T14:17:33.068Z,8.70
2019-02-08T14:20:00.367Z,8.70
2019-02-08T14:22:27.767Z,8.70
2019-02-08T14:24:55.133Z,8.70
2019-02-08T14:27:22.387Z,8.60
2019-02-08T14:29:49.733Z,8.60
2019-02-08T14:32:16.625Z,8.70
2019-02-08T14:34:43.987Z,8.60
2019-02-08T14:37:11.198Z,8.60
2019-02-08T14:39:38.240Z,8.60
2019-02-08T14:42:05.230Z,8.50
2019-02-08T14:44:32.592Z,8.50
2019-02-08T14:47:01.321Z,8.60
2019-02-08T14:49:28.580Z,8.60
2019-02-08T14:51:55.732Z,8.60
2019-02-08T14:54:22.788Z,8.50
2019-02-08T14:56:50.156Z,8.50
2019-02-08T14:59:17.488Z,8.60
2019-02-08T15:01:45.690Z,8.60
2019-02-08T15:04:12.722Z,8.60
2019-02-08T15:06:41.180Z,8.60
2019-02-08T15:09:09.553Z,8.60
2019-02-08T15:11:38.488Z,8.60
2019-02-08T15:14:05.716Z,8.60
2019-02-08T15:16:33.192Z,8.60
2019-02-08T15:19:00.482Z,8.60
2019-02-08T15:21:27.989Z,8.50
2019-02-08T15:23:56.405Z,8.50
2019-02-08T15:26:24.057Z,8.50
2019-02-08T15:28:51.097Z,8.50
2019-02-08T15:31:18.526Z,8.50
2019-02-08T15:33:46.230Z,8.50
2019-02-08T15:36:13.208Z,8.50
2019-02-08T15:38:41.517Z,8.50
2019-02-08T15:41:08.940Z,8.50
2019-02-08T15:43:35.939Z,8.50
2019-02-08T15:46:04.643Z,8.40
2019-02-08T15:48:32.096Z,8.30
2019-02-08T15:50:59.860Z,8.30
2019-02-08T15:53:27.150Z,8.30
2019-02-08T15:55:58.216Z,8.30
2019-02-08T15:58:25.700Z,8.20
2019-02-08T16:00:53.139Z,8.20
2019-02-08T16:03:20.403Z,8.20
2019-02-08T16:05:48.160Z,8.20
2019-02-08T16:08:15.344Z,8.20
2019-02-08T16:10:42.800Z,8.20
2019-02-08T16:13:09.739Z,8.20
2019-02-08T16:15:36.850Z,8.20
2019-02-08T16:18:05.043Z,8.20
2019-02-08T16:20:32.499Z,8.20
2019-02-08T16:22:59.969Z,8.20
2019-02-08T16:25:28.208Z,8.20
2019-02-08T16:27:55.688Z,8.20
2019-02-08T16:30:24.553Z,8.10
2019-02-08T16:32:52.216Z,8.10
2019-02-08T16:35:20.154Z,8.10
2019-02-08T16:37:47.272Z,8.00
2019-02-08T16:40:17.284Z,8.00
2019-02-08T16:42:44.756Z,8.00
2019-02-08T16:45:15.527Z,8.00
2019-02-08T16:47:42.540Z,8.10
2019-02-08T16:50:12.160Z,8.00
2019-02-08T16:52:39.313Z,7.90
2019-02-08T16:55:07.865Z,7.90
2019-02-08T16:57:34.891Z,7.80
2019-02-08T17:00:04.866Z,7.80
2019-02-08T17:02:32.491Z,7.70
2019-02-08T17:04:59.538Z,7.70
2019-02-08T17:07:26.524Z,7.60
2019-02-08T17:09:53.844Z,7.60
2019-02-08T17:12:21.104Z,7.60
2019-02-08T17:14:49.161Z,7.60
2019-02-08T17:17:16.283Z,7.60
2019-02-08T17:19:43.348Z,7.70
2019-02-08T17:22:10.304Z,7.70
2019-02-08T17:24:37.755Z,7.60
2019-02-08T17:27:04.819Z,7.50
2019-02-08T17:29:32.369Z,7.50
2019-02-08T17:32:00.564Z,7.40
2019-02-08T17:34:27.789Z,7.30
2019-02-08T17:36:54.814Z,7.30
2019-02-08T17:39:21.779Z,7.20
2019-02-08T17:41:48.980Z,7.20
2019-02-08T17:44:16.605Z,7.20
2019-02-08T17:46:43.952Z,7.10
2019-02-08T17:49:10.988Z,7.20
2019-02-08T17:51:39.217Z,7.10
2019-02-08T17:54:06.615Z,7.10
2019-02-08T17:56:33.789Z,7.10
2019-02-08T17:59:01.406Z,7.10
2019-02-08T18:04:51.359Z,7.10
2019-02-08T18:07:19.979Z,7.10
2019-02-08T18:09:47.489Z,7.10
2019-02-08T18:12:14.652Z,7.00
2019-02-08T18:14:41.990Z,7.10
2019-02-08T18:17:09.697Z,7.20
2019-02-08T18:19:37.075Z,7.20
2019-02-08T18:22:04.472Z,7.20
2019-02-08T18:24:32.456Z,7.10
2019-02-08T18:26:59.699Z,7.10
2019-02-08T18:29:27.381Z,7.20
2019-02-08T18:31:54.640Z,7.20
2019-02-08T18:34:22.120Z,7.20
2019-02-08T18:36:49.528Z,7.20
2019-02-08T18:39:16.776Z,7.20
2019-02-08T18:41:45.054Z,7.20
2019-02-08T18:44:12.236Z,7.20
2019-02-08T18:46:39.153Z,7.30
2019-02-08T18:49:06.181Z,7.40
2019-02-08T18:51:33.552Z,7.50
2019-02-08T18:54:01.100Z,7.40
2019-02-08T18:56:28.128Z,7.40
2019-02-08T18:58:56.337Z,7.30
2019-02-08T19:01:23.787Z,7.30
2019-02-08T19:03:52.084Z,7.30
2019-02-08T19:06:19.030Z,7.30
2019-02-08T19:08:47.446Z,7.30
2019-02-08T19:11:14.670Z,7.20
2019-02-08T19:13:42.234Z,7.30
2019-02-08T19:16:09.362Z,7.20
2019-02-08T19:18:36.309Z,7.20
2019-02-08T19:21:03.759Z,7.30
2019-02-08T19:23:31.215Z,7.20
2019-02-08T19:25:58.696Z,7.10
2019-02-08T19:28:26.804Z,7.20
2019-02-08T19:30:53.897Z,7.20
2019-02-08T19:33:21.253Z,7.20
2019-02-08T19:35:49.675Z,7.20
2019-02-08T19:38:17.706Z,7.20
2019-02-08T19:40:45.252Z,7.30
2019-02-08T19:43:13.708Z,7.20
2019-02-08T19:46:01.992Z,7.20
2019-02-08T19:48:29.243Z,7.10
2019-02-08T19:50:57.000Z,7.10
2019-02-08T19:53:24.097Z,7.00
2019-02-08T19:55:52.948Z,7.00
2019-02-08T19:58:19.954Z,7.00
2019-02-08T20:00:47.347Z,7.10
2019-02-08T20:03:14.703Z,7.20
2019-02-08T20:05:42.014Z,7.10
2019-02-08T20:08:10.953Z,7.10
2019-02-08T20:10:39.739Z,7.10
2019-02-08T20:13:06.893Z,7.10
2019-02-08T20:15:34.488Z,7.00
2019-02-08T20:18:01.985Z,7.00
2019-02-08T20:20:29.428Z,7.00
2019-02-08T20:22:56.879Z,6.90
2019-02-08T20:25:28.863Z,6.80
2019-02-08T20:27:56.364Z,6.90
2019-02-08T20:30:24.014Z,6.80
2019-02-08T20:32:51.508Z,6.70
2019-02-08T20:35:19.945Z,6.70
2019-02-08T20:37:47.839Z,6.70
2019-02-08T20:40:17.908Z,6.70
2019-02-08T20:42:45.383Z,6.70
2019-02-08T20:45:16.128Z,6.60
2019-02-08T20:47:43.480Z,6.60
2019-02-08T20:50:11.683Z,6.50
2019-02-08T20:52:38.756Z,6.60
2019-02-08T20:55:06.464Z,6.50
2019-02-08T20:57:33.595Z,6.60
2019-02-08T21:00:01.667Z,6.50
2019-02-08T21:02:30.029Z,6.50
2019-02-08T21:04:57.228Z,6.50
2019-02-08T21:07:24.387Z,6.50
2019-02-08T21:09:52.952Z,6.50
2019-02-08T21:12:20.226Z,6.50
2019-02-08T21:14:47.459Z,6.60
2019-02-08T21:17:14.828Z,6.60
2019-02-08T21:19:42.173Z,6.60
2019-02-08T21:22:09.632Z,6.60
2019-02-08T21:24:36.985Z,6.50
2019-02-08T21:27:05.152Z,6.40
2019-02-08T21:29:32.115Z,6.60
2019-02-08T21:32:00.424Z,6.60
2019-02-08T21:34:27.394Z,6.60
2019-02-08T21:36:54.992Z,6.60
2019-02-08T21:39:22.392Z,6.60
2019-02-08T21:41:50.000Z,6.50
2019-02-08T21:44:17.329Z,6.50
2019-02-08T21:46:44.277Z,6.40
2019-02-08T21:49:11.203Z,6.50
2019-02-08T21:51:38.507Z,6.50
2019-02-08T21:54:05.643Z,6.40
2019-02-08T21:56:33.515Z,6.40
2019-02-08T21:59:06.243Z,6.40
2019-02-08T22:01:30.584Z,6.40
2019-02-08T22:03:57.792Z,6.40
2019-02-08T22:06:25.267Z,6.40
2019-02-08T22:08:52.803Z,6.30
2019-02-08T22:11:21.150Z,6.40
2019-02-08T22:13:48.815Z,6.30
2019-02-08T22:16:15.914Z,6.30
2019-02-08T22:18:43.320Z,6.30
2019-02-08T22:21:10.420Z,6.30
2019-02-08T22:23:37.792Z,6.50
2019-02-08T22:26:05.168Z,6.50
2019-02-08T22:28:32.426Z,6.50
2019-02-08T22:30:59.772Z,6.40
2019-02-08T22:33:27.071Z,6.40
2019-02-08T22:35:54.379Z,6.40
2019-02-08T22:38:21.447Z,6.40
2019-02-08T22:40:48.468Z,6.40
2019-02-08T22:43:15.635Z,6.40
2019-02-08T22:45:43.089Z,6.50
2019-02-08T22:48:10.318Z,6.50
2019-02-08T22:50:38.208Z,6.50
2019-02-08T22:53:06.866Z,6.40
2019-02-08T22:55:34.173Z,6.40
2019-02-08T22:58:02.895Z,6.40
2019-02-08T23:01:26.051Z,6.40
2019-02-08T23:03:54.869Z,6.40
2019-02-08T23:06:22.335Z,6.30
2019-02-08T23:08:50.159Z,6.20
2019-02-08T23:11:17.286Z,6.20
2019-02-08T23:13:44.505Z,6.30
2019-02-08T23:16:11.968Z,6.20
2019-02-08T23:18:39.081Z,6.30
2019-02-08T23:21:06.912Z,6.30
2019-02-08T23:23:35.117Z,6.30
2019-02-08T23:26:02.562Z,6.40
2019-02-08T23:28:29.878Z,6.30
2019-02-08T23:30:57.120Z,6.40
2019-02-08T23:33:24.023Z,6.40
2019-02-08T23:35:51.272Z,6.30
2019-02-08T23:38:19.595Z,6.30
2019-02-08T23:40:47.632Z,6.40
2019-02-08T23:43:14.746Z,6.40
2019-02-08T23:45:41.887Z,6.40
2019-02-08T23:48:09.429Z,6.30
2019-02-08T23:50:36.575Z,6.40
2019-02-08T23:53:04.868Z,6.40
2019-02-08T23:55:33.092Z,6.30
2019-02-08T23:58:00.320Z,6.40
